Sakaide Maru — 3EYR6 — position and weather

sailwx.info

Track history (hours):
 
Tides and Currents Weather Stations Pressure Air Temp Water Temp Dewpoint Dewpoint Depression Visibility Wind Speed Wind Dir Waves Ship Positions

Sakaide Maru

Last reported at 2014-Sep-29 16:33 UTC. Time now 2014-Sep-30 10:15 UTC.
Position N 49°00' W 126°51'.

Length 255 m; draft 12.9 m.

Type: Cargo ship. MMSI: 354898000.

Date/timePositionNaut miles runAvg speedWind from/ knotsBaromVisibWave heightAir tempDewpointWater temp
2014-Sep-29 16:33N 49°00' W 126°51'1111.1
2014-Sep-29 15:33N 48°55' W 126°36'1111.0
2014-Sep-29 14:33N 48°51' W 126°21'1211.5
2014-Sep-29 13:33N 48°46' W 126°05'1211.8
2014-Sep-29 12:34N 48°40' W 125°50'1211.7
2014-Sep-29 11:34N 48°35' W 125°34'1312.4
2014-Sep-29 10:33N 48°31' W 125°16'1312.6
2014-Sep-29 09:33N 48°31' W 124°57'1312.8
2014-Sep-29 08:34N 48°29' W 124°38'1313.4
2014-Sep-29 07:34N 48°24' W 124°19'1413.8
2014-Sep-29 06:33N 48°19' W 124°00'1414.0
2014-Sep-29 05:33N 48°16' W 123°40'1211.6
2014-Sep-29 04:33N 48°22' W 123°25'9 9.5
2014-Sep-29 03:33N 48°27' W 123°12'1312.9
2014-Sep-29 02:33N 48°40' W 123°15'1111.2
2014-Sep-29 01:33N 48°47' W 123°02'1111.4
2014-Sep-29 00:33N 48°56' W 123°13'1212.2
2014-Sep-28 23:33N 49°05' W 123°25'1212.4
2014-Sep-28 22:33N 49°17' W 123°20'9 9.3
2014-Sep-28 21:33N 49°18' W 123°06'2 1.6
2014-Sep-28 20:33N 49°18' W 123°03'0 0.0
2014-Sep-28 19:33N 49°18' W 123°03'0 0.0
2014-Sep-28 18:33N 49°18' W 123°03'0 0.0
2014-Sep-28 17:33N 49°18' W 123°03'0 0.0
2014-Sep-28 16:33N 49°18' W 123°03'0 0.0
2014-Sep-28 15:33N 49°18' W 123°03'0 0.0
2014-Sep-28 14:33N 49°18' W 123°03'0 0.0
2014-Sep-28 13:33N 49°18' W 123°03'0 0.0
2014-Sep-28 12:33N 49°18' W 123°03'0 0.0
2014-Sep-28 11:33N 49°18' W 123°03'0 0.0
2014-Sep-28 10:33N 49°18' W 123°03'0 0.0
2014-Sep-28 09:33N 49°18' W 123°03'0 0.0
2014-Sep-28 08:33N 49°18' W 123°03'0 0.0
2014-Sep-28 07:33N 49°18' W 123°03'0 0.0
2014-Sep-28 06:33N 49°18' W 123°03'0 0.0
2014-Sep-28 05:33N 49°18' W 123°03'0 0.0
2014-Sep-28 04:33N 49°18' W 123°03'0 0.0
2014-Sep-28 03:33N 49°18' W 123°03'0 0.0
2014-Sep-28 02:33N 49°18' W 123°03'0 0.0
2014-Sep-28 01:33N 49°18' W 123°03'0 0.0
2014-Sep-28 00:33N 49°18' W 123°03'0 0.0
2014-Sep-27 23:33N 49°18' W 123°03'0 0.0
2014-Sep-27 22:33N 49°18' W 123°03'0 0.0
2014-Sep-27 21:33N 49°18' W 123°03'0 0.0
2014-Sep-27 20:33N 49°18' W 123°03'0 0.0
2014-Sep-27 19:33N 49°18' W 123°03'0 0.0
2014-Sep-27 18:33N 49°18' W 123°03'0 0.0
2014-Sep-27 17:33N 49°18' W 123°03'0 0.0
2014-Sep-27 16:33N 49°18' W 123°03'0 0.0
2014-Sep-27 15:33N 49°18' W 123°03'0 0.0
2014-Sep-27 14:33N 49°18' W 123°03'0 0.0
2014-Sep-27 13:33N 49°18' W 123°03'0 0.0
2014-Sep-27 12:33N 49°18' W 123°03'0 0.0
2014-Sep-27 11:33N 49°18' W 123°03'0 0.0
2014-Sep-27 10:33N 49°18' W 123°03'0 0.0
2014-Sep-27 09:33N 49°18' W 123°03'0 0.0
2014-Sep-27 08:33N 49°18' W 123°03'0 0.0
2014-Sep-27 07:33N 49°18' W 123°03'0 0.0
2014-Sep-27 06:33N 49°18' W 123°03'0 0.0
2014-Sep-27 05:33N 49°18' W 123°03'0 0.0
2014-Sep-27 04:33N 49°18' W 123°03'0 0.0
2014-Sep-27 03:33N 49°18' W 123°03'0 0.0
2014-Sep-27 02:33N 49°18' W 123°03'0 0.0
2014-Sep-27 01:33N 49°18' W 123°03'0 0.0
2014-Sep-27 00:33N 49°18' W 123°03'0 0.0
2014-Sep-26 23:33N 49°18' W 123°03'0 0.0
2014-Sep-26 22:33N 49°18' W 123°03'0 0.0
2014-Sep-26 21:33N 49°18' W 123°03'0 0.0
2014-Sep-26 20:33N 49°18' W 123°03'0 0.0
2014-Sep-26 19:33N 49°18' W 123°03'0 0.0
2014-Sep-26 18:33N 49°18' W 123°03'0 0.0
2014-Sep-26 17:33N 49°18' W 123°03'0 0.0
2014-Sep-26 16:33N 49°18' W 123°03'0 0.0
2014-Sep-26 15:33N 49°18' W 123°03'1 0.8
2014-Sep-26 14:33N 49°18' W 123°05'5 5.3
2014-Sep-26 13:33N 49°18' W 123°13'0 0.0
2014-Sep-26 12:31N 49°18' W 123°13'0 0.2
2014-Sep-26 11:31N 49°18' W 123°12'0 0.1
2014-Sep-26 10:31N 49°18' W 123°12'0 0.0
2014-Sep-26 09:31N 49°18' W 123°12'0 0.1
2014-Sep-26 08:31N 49°18' W 123°12'0 0.1
2014-Sep-26 07:31N 49°18' W 123°12'0 0.2
2014-Sep-26 06:31N 49°18' W 123°12'0 0.1
2014-Sep-26 05:31N 49°18' W 123°13'0 0.0
2014-Sep-26 04:31N 49°18' W 123°13'0 0.1
2014-Sep-26 03:31N 49°18' W 123°13'0 0.0
2014-Sep-26 02:31N 49°18' W 123°13'0 0.0
2014-Sep-26 01:31N 49°18' W 123°13'0 0.0
2014-Sep-26 00:31N 49°18' W 123°13'0 0.0
2014-Sep-25 23:31N 49°18' W 123°13'0 0.1
2014-Sep-25 22:31N 49°18' W 123°13'0 0.1
2014-Sep-25 21:31N 49°18' W 123°12'0 0.0
2014-Sep-25 20:31N 49°18' W 123°12'0 0.0
2014-Sep-25 19:31N 49°18' W 123°12'0 0.1
2014-Sep-25 18:28N 49°18' W 123°13'0 0.1
2014-Sep-25 17:31N 49°18' W 123°13'0 0.0
2014-Sep-25 16:31N 49°18' W 123°13'0 0.0
2014-Sep-25 15:31N 49°18' W 123°13'0 0.0
2014-Sep-25 14:28N 49°18' W 123°13'0 0.1
2014-Sep-25 13:28N 49°18' W 123°12'0 0.0
2014-Sep-25 12:31N 49°18' W 123°12'0 0.0
2014-Sep-25 11:31N 49°18' W 123°12'0 0.1
2014-Sep-25 10:31N 49°18' W 123°12'0 0.0
2014-Sep-25 09:31N 49°18' W 123°12'0 0.0
2014-Sep-25 08:31N 49°18' W 123°12'0 0.0
2014-Sep-25 07:31N 49°18' W 123°12'0 0.0
2014-Sep-25 06:31N 49°18' W 123°12'0 0.1
2014-Sep-25 05:31N 49°18' W 123°12'0 0.2
2014-Sep-25 04:31N 49°18' W 123°13'1 0.6
2014-Sep-25 03:33N 49°18' W 123°13'9 9.1
2014-Sep-25 02:34N 49°10' W 123°20'1313.3
2014-Sep-25 01:33N 48°58' W 123°10'1313.0
2014-Sep-25 00:33N 48°46' W 123°02'1212.3
2014-Sep-24 23:33N 48°37' W 123°13'1413.7
2014-Sep-24 22:33N 48°23' W 123°15'9 9.1
2014-Sep-24 21:33N 48°17' W 123°26'8 8.5
2014-Sep-24 20:33N 48°14' W 123°37'1111.4
2014-Sep-24 19:33N 48°14' W 123°54'1414.0
2014-Sep-24 18:33N 48°19' W 124°13'1312.8
2014-Sep-24 17:33N 48°25' W 124°31'1212.2
2014-Sep-24 16:33N 48°29' W 124°48'1111.1
2014-Sep-24 15:33N 48°29' W 125°05'1111.0
2014-Sep-24 14:33N 48°29' W 125°21'1110.8
2014-Sep-24 13:33N 48°34' W 125°36'1110.8
2014-Sep-24 12:33N 48°39' W 125°51'1111.0
2014-Sep-24 11:33N 48°44' W 126°05'1111.0
2014-Sep-24 10:33N 48°49' W 126°21'1110.8
2014-Sep-24 09:33N 48°54' W 126°35'  
Track history (hours):
 
Tides and Currents Weather Stations Pressure Air Temp Water Temp Dewpoint Dewpoint Depression Visibility Wind Speed Wind Dir Waves Ship Positions

Sakaide Maru

Last reported at 2014-Sep-29 16:33 UTC. Time now 2014-Sep-30 10:15 UTC.
Position N 49°00' W 126°51'.

Length 255 m; draft 12.9 m.

Type: Cargo ship. MMSI: 354898000.

Date/timePositionNaut miles runAvg speedWind from/ knotsBaromVisibWave heightAir tempDewpointWater temp
2014-Sep-29 16:33N 49°00' W 126°51'1111.1
2014-Sep-29 15:33N 48°55' W 126°36'1111.0
2014-Sep-29 14:33N 48°51' W 126°21'1211.5
2014-Sep-29 13:33N 48°46' W 126°05'1211.8
2014-Sep-29 12:34N 48°40' W 125°50'1211.7
2014-Sep-29 11:34N 48°35' W 125°34'1312.4
2014-Sep-29 10:33N 48°31' W 125°16'1312.6
2014-Sep-29 09:33N 48°31' W 124°57'1312.8
2014-Sep-29 08:34N 48°29' W 124°38'1313.4
2014-Sep-29 07:34N 48°24' W 124°19'1413.8
2014-Sep-29 06:33N 48°19' W 124°00'1414.0
2014-Sep-29 05:33N 48°16' W 123°40'1211.6
2014-Sep-29 04:33N 48°22' W 123°25'9 9.5
2014-Sep-29 03:33N 48°27' W 123°12'1312.9
2014-Sep-29 02:33N 48°40' W 123°15'1111.2
2014-Sep-29 01:33N 48°47' W 123°02'1111.4
2014-Sep-29 00:33N 48°56' W 123°13'1212.2
2014-Sep-28 23:33N 49°05' W 123°25'1212.4
2014-Sep-28 22:33N 49°17' W 123°20'9 9.3
2014-Sep-28 21:33N 49°18' W 123°06'2 1.6
2014-Sep-28 20:33N 49°18' W 123°03'0 0.0
2014-Sep-28 19:33N 49°18' W 123°03'0 0.0
2014-Sep-28 18:33N 49°18' W 123°03'0 0.0
2014-Sep-28 17:33N 49°18' W 123°03'0 0.0
2014-Sep-28 16:33N 49°18' W 123°03'0 0.0
2014-Sep-28 15:33N 49°18' W 123°03'0 0.0
2014-Sep-28 14:33N 49°18' W 123°03'0 0.0
2014-Sep-28 13:33N 49°18' W 123°03'0 0.0
2014-Sep-28 12:33N 49°18' W 123°03'0 0.0
2014-Sep-28 11:33N 49°18' W 123°03'0 0.0
2014-Sep-28 10:33N 49°18' W 123°03'0 0.0
2014-Sep-28 09:33N 49°18' W 123°03'0 0.0
2014-Sep-28 08:33N 49°18' W 123°03'0 0.0
2014-Sep-28 07:33N 49°18' W 123°03'0 0.0
2014-Sep-28 06:33N 49°18' W 123°03'0 0.0
2014-Sep-28 05:33N 49°18' W 123°03'0 0.0
2014-Sep-28 04:33N 49°18' W 123°03'0 0.0
2014-Sep-28 03:33N 49°18' W 123°03'0 0.0
2014-Sep-28 02:33N 49°18' W 123°03'0 0.0
2014-Sep-28 01:33N 49°18' W 123°03'0 0.0
2014-Sep-28 00:33N 49°18' W 123°03'0 0.0
2014-Sep-27 23:33N 49°18' W 123°03'0 0.0
2014-Sep-27 22:33N 49°18' W 123°03'0 0.0
2014-Sep-27 21:33N 49°18' W 123°03'0 0.0
2014-Sep-27 20:33N 49°18' W 123°03'0 0.0
2014-Sep-27 19:33N 49°18' W 123°03'0 0.0
2014-Sep-27 18:33N 49°18' W 123°03'0 0.0
2014-Sep-27 17:33N 49°18' W 123°03'0 0.0
2014-Sep-27 16:33N 49°18' W 123°03'0 0.0
2014-Sep-27 15:33N 49°18' W 123°03'0 0.0
2014-Sep-27 14:33N 49°18' W 123°03'0 0.0
2014-Sep-27 13:33N 49°18' W 123°03'0 0.0
2014-Sep-27 12:33N 49°18' W 123°03'0 0.0
2014-Sep-27 11:33N 49°18' W 123°03'0 0.0
2014-Sep-27 10:33N 49°18' W 123°03'0 0.0
2014-Sep-27 09:33N 49°18' W 123°03'0 0.0
2014-Sep-27 08:33N 49°18' W 123°03'0 0.0
2014-Sep-27 07:33N 49°18' W 123°03'0 0.0
2014-Sep-27 06:33N 49°18' W 123°03'0 0.0
2014-Sep-27 05:33N 49°18' W 123°03'0 0.0
2014-Sep-27 04:33N 49°18' W 123°03'0 0.0
2014-Sep-27 03:33N 49°18' W 123°03'0 0.0
2014-Sep-27 02:33N 49°18' W 123°03'0 0.0
2014-Sep-27 01:33N 49°18' W 123°03'0 0.0
2014-Sep-27 00:33N 49°18' W 123°03'0 0.0
2014-Sep-26 23:33N 49°18' W 123°03'0 0.0
2014-Sep-26 22:33N 49°18' W 123°03'0 0.0
2014-Sep-26 21:33N 49°18' W 123°03'0 0.0
2014-Sep-26 20:33N 49°18' W 123°03'0 0.0
2014-Sep-26 19:33N 49°18' W 123°03'0 0.0
2014-Sep-26 18:33N 49°18' W 123°03'0 0.0
2014-Sep-26 17:33N 49°18' W 123°03'0 0.0
2014-Sep-26 16:33N 49°18' W 123°03'0 0.0
2014-Sep-26 15:33N 49°18' W 123°03'1 0.8
2014-Sep-26 14:33N 49°18' W 123°05'5 5.3
2014-Sep-26 13:33N 49°18' W 123°13'0 0.0
2014-Sep-26 12:31N 49°18' W 123°13'0 0.2
2014-Sep-26 11:31N 49°18' W 123°12'0 0.1
2014-Sep-26 10:31N 49°18' W 123°12'0 0.0
2014-Sep-26 09:31N 49°18' W 123°12'0 0.1
2014-Sep-26 08:31N 49°18' W 123°12'0 0.1
2014-Sep-26 07:31N 49°18' W 123°12'0 0.2
2014-Sep-26 06:31N 49°18' W 123°12'0 0.1
2014-Sep-26 05:31N 49°18' W 123°13'0 0.0
2014-Sep-26 04:31N 49°18' W 123°13'0 0.1
2014-Sep-26 03:31N 49°18' W 123°13'0 0.0
2014-Sep-26 02:31N 49°18' W 123°13'0 0.0
2014-Sep-26 01:31N 49°18' W 123°13'0 0.0
2014-Sep-26 00:31N 49°18' W 123°13'0 0.0
2014-Sep-25 23:31N 49°18' W 123°13'0 0.1
2014-Sep-25 22:31N 49°18' W 123°13'0 0.1
2014-Sep-25 21:31N 49°18' W 123°12'0 0.0
2014-Sep-25 20:31N 49°18' W 123°12'0 0.0
2014-Sep-25 19:31N 49°18' W 123°12'0 0.1
2014-Sep-25 18:28N 49°18' W 123°13'0 0.1
2014-Sep-25 17:31N 49°18' W 123°13'0 0.0
2014-Sep-25 16:31N 49°18' W 123°13'0 0.0
2014-Sep-25 15:31N 49°18' W 123°13'0 0.0
2014-Sep-25 14:28N 49°18' W 123°13'0 0.1
2014-Sep-25 13:28N 49°18' W 123°12'0 0.0
2014-Sep-25 12:31N 49°18' W 123°12'0 0.0
2014-Sep-25 11:31N 49°18' W 123°12'0 0.1
2014-Sep-25 10:31N 49°18' W 123°12'0 0.0
2014-Sep-25 09:31N 49°18' W 123°12'0 0.0
2014-Sep-25 08:31N 49°18' W 123°12'0 0.0
2014-Sep-25 07:31N 49°18' W 123°12'0 0.0
2014-Sep-25 06:31N 49°18' W 123°12'0 0.1
2014-Sep-25 05:31N 49°18' W 123°12'0 0.2
2014-Sep-25 04:31N 49°18' W 123°13'1 0.6
2014-Sep-25 03:33N 49°18' W 123°13'9 9.1
2014-Sep-25 02:34N 49°10' W 123°20'1313.3
2014-Sep-25 01:33N 48°58' W 123°10'1313.0
2014-Sep-25 00:33N 48°46' W 123°02'1212.3
2014-Sep-24 23:33N 48°37' W 123°13'1413.7
2014-Sep-24 22:33N 48°23' W 123°15'9 9.1
2014-Sep-24 21:33N 48°17' W 123°26'8 8.5
2014-Sep-24 20:33N 48°14' W 123°37'1111.4
2014-Sep-24 19:33N 48°14' W 123°54'1414.0
2014-Sep-24 18:33N 48°19' W 124°13'1312.8
2014-Sep-24 17:33N 48°25' W 124°31'1212.2
2014-Sep-24 16:33N 48°29' W 124°48'1111.1
2014-Sep-24 15:33N 48°29' W 125°05'1111.0
2014-Sep-24 14:33N 48°29' W 125°21'1110.8
2014-Sep-24 13:33N 48°34' W 125°36'1110.8
2014-Sep-24 12:33N 48°39' W 125°51'1111.0
2014-Sep-24 11:33N 48°44' W 126°05'1111.0
2014-Sep-24 10:33N 48°49' W 126°21'1110.8
2014-Sep-24 09:33N 48°54' W 126°35'  

Dump ship's entire track history